Pagrindinis puslapis
METAR-TAF:

METAR-TAF

Oro uostai :

Milano Malpensa oro uostas

Milanas, Italija

platuma: 45-37N, ilguma: 008-44E, Aukštis: 234 m

Dabartinis oras

Ataskaita buvo paskelbta 22 minutes, ne 18:20 UTC
Vėjas 4 kt iš Vakarų
Temperatūra 22°C
Drėgmė 38%
Slėgis 1014 hPa
Matomumas 10 km arba daugiau
Išsisklaidę debesys ne aukštis 6000 ft

METAR: LIMC 301820Z 26004KT 9999 SCT060 22/07 Q1014 NOSIG

Laikas: 20:42 (18:42 UTC)

Prognozė

Ataskaita buvo paskelbta 1 valandą ir 42 minutes, ne 17:00 UTC
Prognozė galioja nuo 30 metu 18 UTC su 31 metu 24 UTC
Vėjas 10 kt iš Rytų
Matomumas 10 km arba daugiau
Išsisklaidę debesys ne aukštis 4000 ft
Laikinai
nuo 30 metu 20 UTC su 31 metu 02 UTC
Matomumas: 4000 m
lietus
Tapsmas
nuo 31 metu 07 UTC su 31 metu 09 UTC
Vėjas 5 kt nuo kintamojo kryptimis

TAF: LIMC 301700Z 3018/3124 10010KT 9999 SCT040 TEMPO 3020/3102 4000 SHRA BECMG 3107/3109 VRB05KT

Orai ataskaitas ir orų prognozės (METAR, TAF).

turimą stotys yra geltonos ir raudonos taškus žemėlapyje.

Perkelti pele per norėdami pamatyti stoties vardą.

Tada spustelėkite, norėdami matyti oro stebėjimo ir prognozės.

Norėdami pakeisti žemėlapį: spustelėkite ant žalios mygtukų su juodo kryžiaus žemyn,; žalią mygtuką su brūkšneliu, jei norite nutolinti; arba žalių rodyklių gretimoms žemėlapius.


METAR-TAF: